createdAt,value
2023-05-01T00:02:05.880Z,3.25
2023-05-01T00:04:33.551Z,7.55
2023-05-01T00:06:59.841Z,6.22
2023-05-01T00:09:28.939Z,4.68
2023-05-01T00:11:55.345Z,3.95
2023-05-01T00:14:21.635Z,3.15
2023-05-01T00:16:48.152Z,3.03
2023-05-01T00:19:18.938Z,4.00
2023-05-01T00:24:12.219Z,5.80
2023-05-01T00:26:38.628Z,4.63
2023-05-01T00:29:05.016Z,6.90
2023-05-01T00:31:31.443Z,6.78
2023-05-01T00:33:57.789Z,7.90
2023-05-01T00:36:24.126Z,5.32
2023-05-01T00:38:50.430Z,4.47
2023-05-01T00:41:17.308Z,4.80
2023-05-01T00:43:43.821Z,4.43
2023-05-01T00:46:11.157Z,8.60
2023-05-01T00:48:37.648Z,2.72
2023-05-01T00:51:07.757Z,4.40
2023-05-01T00:53:34.212Z,9.70
2023-05-01T00:56:00.829Z,2.75
2023-05-01T00:58:27.180Z,2.47
2023-05-01T01:00:53.724Z,8.02
2023-05-01T01:03:20.213Z,2.85
2023-05-01T01:05:50.802Z,5.97
2023-05-01T01:10:54.167Z,9.38
2023-05-01T01:13:26.574Z,2.90
2023-05-01T01:16:31.773Z,8.63
2023-05-01T01:19:02.056Z,4.45
2023-05-01T01:21:32.274Z,5.10
2023-05-01T01:24:16.885Z,5.28
2023-05-01T01:26:58.678Z,6.70
2023-05-01T01:29:24.941Z,4.85
2023-05-01T01:32:03.864Z,7.88
2023-05-01T01:34:35.241Z,7.00
2023-05-01T01:37:19.654Z,8.05
2023-05-01T01:39:48.651Z,6.07
2023-05-01T01:42:26.751Z,6.47
2023-05-01T01:44:55.401Z,5.20
2023-05-01T01:47:26.955Z,6.03
2023-05-01T01:49:53.611Z,4.32
2023-05-01T01:52:20.449Z,5.40
2023-05-01T01:54:50.525Z,4.20
2023-05-01T01:57:18.475Z,12.20
2023-05-01T01:59:46.161Z,4.72
2023-05-01T02:02:13.734Z,4.60
2023-05-01T02:04:42.223Z,8.10
2023-05-01T02:07:09.335Z,3.33
2023-05-01T02:09:36.433Z,3.78
2023-05-01T02:12:05.193Z,7.35
2023-05-01T02:14:31.724Z,5.97
2023-05-01T02:16:58.795Z,6.35
2023-05-01T02:19:25.707Z,7.05
2023-05-01T02:21:53.246Z,3.00
2023-05-01T02:24:22.538Z,9.65
2023-05-01T02:26:51.939Z,5.95
2023-05-01T02:29:18.185Z,2.83
2023-05-01T02:31:44.474Z,4.50
2023-05-01T02:34:11.369Z,4.22
2023-05-01T02:36:38.014Z,6.93
2023-05-01T02:39:04.603Z,6.95
2023-05-01T02:41:32.135Z,7.25
2023-05-01T03:04:08.555Z,2.88
2023-05-01T03:06:34.890Z,6.75
2023-05-01T03:09:01.218Z,3.40
2023-05-01T03:11:27.553Z,6.68
2023-05-01T03:13:53.810Z,4.18
2023-05-01T03:16:20.181Z,6.50
2023-05-01T03:18:46.488Z,5.13
2023-05-01T03:21:12.845Z,2.50
2023-05-01T03:23:39.097Z,4.15
2023-05-01T03:26:05.524Z,3.58
2023-05-01T03:28:32.474Z,5.65
2023-05-01T03:30:58.785Z,4.10
2023-05-01T03:33:26.183Z,4.40
2023-05-01T03:36:04.033Z,4.90
2023-05-01T03:38:30.911Z,3.38
2023-05-01T03:40:57.600Z,5.85
2023-05-01T03:43:24.168Z,5.53
2023-05-01T03:45:51.286Z,4.22
2023-05-01T03:48:18.162Z,5.65
2023-05-01T03:50:44.564Z,6.05
2023-05-01T03:53:10.918Z,9.77
2023-05-01T03:55:37.170Z,6.80
2023-05-01T03:58:03.426Z,3.95
2023-05-01T04:00:29.793Z,8.07
2023-05-01T04:02:56.908Z,5.68
2023-05-01T04:05:23.339Z,6.15
2023-05-01T04:07:49.703Z,5.50
2023-05-01T04:10:17.043Z,5.60
2023-05-01T04:12:43.534Z,6.22
2023-05-01T04:15:09.975Z,6.82
2023-05-01T04:17:36.941Z,5.70
2023-05-01T04:20:05.505Z,5.22
2023-05-01T04:22:32.049Z,7.63
2023-05-01T04:24:58.414Z,7.10
2023-05-01T04:27:25.061Z,5.22
2023-05-01T04:29:51.375Z,7.60
2023-05-01T04:32:17.677Z,8.00
2023-05-01T04:34:44.700Z,5.03
2023-05-01T04:37:10.959Z,6.90
2023-05-01T04:39:37.323Z,6.70
2023-05-01T04:42:03.898Z,4.57
2023-05-01T04:44:30.748Z,9.55
2023-05-01T04:46:57.022Z,4.97
2023-05-01T04:49:23.341Z,7.50
2023-05-01T04:51:49.679Z,5.05
2023-05-01T04:54:15.964Z,9.23
2023-05-01T04:56:42.295Z,12.23
2023-05-01T04:59:09.138Z,10.70
2023-05-01T05:01:35.578Z,5.55
2023-05-01T05:04:02.295Z,13.10
2023-05-01T05:06:28.762Z,13.57
2023-05-01T05:08:57.022Z,14.23
2023-05-01T05:11:23.317Z,11.07
2023-05-01T05:13:49.675Z,6.45
2023-05-01T05:16:16.141Z,9.45
2023-05-01T05:18:42.549Z,7.38
2023-05-01T05:21:10.348Z,11.90
2023-05-01T05:23:36.832Z,11.10
2023-05-01T05:26:03.633Z,12.20
2023-05-01T05:28:30.286Z,5.40
2023-05-01T05:30:57.057Z,6.88
2023-05-01T05:33:24.953Z,8.63
2023-05-01T05:35:52.236Z,12.27
2023-05-01T05:38:18.470Z,7.75
2023-05-01T05:40:44.728Z,12.32
2023-05-01T05:43:11.001Z,11.18
2023-05-01T05:45:37.405Z,7.10
2023-05-01T05:48:04.158Z,11.25
2023-05-01T05:50:30.552Z,9.55
2023-05-01T05:52:56.834Z,10.65
2023-05-01T05:55:23.139Z,10.30
2023-05-01T05:57:49.398Z,14.45
2023-05-01T06:00:15.927Z,7.18
2023-05-01T06:02:42.357Z,8.75
2023-05-01T06:05:10.197Z,22.10
2023-05-01T06:07:37.287Z,10.13
2023-05-01T06:10:06.620Z,10.93
2023-05-01T06:12:34.617Z,10.45
2023-05-01T06:15:03.769Z,15.10
2023-05-01T06:17:30.107Z,15.15
2023-05-01T06:19:56.910Z,8.15
2023-05-01T06:22:23.362Z,17.80
2023-05-01T06:24:49.659Z,9.90
2023-05-01T06:27:15.975Z,7.53
2023-05-01T06:29:42.274Z,16.55
2023-05-01T06:32:08.589Z,13.38
2023-05-01T06:34:34.863Z,16.77
2023-05-01T06:37:01.132Z,10.27
2023-05-01T06:39:27.420Z,14.00
2023-05-01T06:41:53.706Z,15.80
2023-05-01T06:44:20.017Z,15.95
2023-05-01T06:46:46.574Z,16.42
2023-05-01T06:49:12.885Z,13.48
2023-05-01T06:51:39.105Z,15.07
2023-05-01T06:54:05.447Z,16.60
2023-05-01T06:56:32.301Z,15.10
2023-05-01T06:58:58.612Z,9.75
2023-05-01T07:01:25.105Z,12.90
2023-05-01T07:03:51.460Z,14.85
2023-05-01T07:06:17.748Z,20.98
2023-05-01T07:08:44.154Z,9.88
2023-05-01T07:11:10.728Z,10.60
2023-05-01T07:13:37.524Z,11.38
2023-05-01T07:16:03.981Z,13.95
2023-05-01T07:18:30.304Z,9.80
2023-05-01T07:20:56.574Z,13.13
2023-05-01T07:23:23.626Z,26.73
2023-05-01T07:25:49.919Z,15.60
2023-05-01T07:28:18.008Z,21.23
2023-05-01T07:30:44.253Z,15.98
2023-05-01T07:33:11.517Z,16.48
2023-05-01T07:35:37.945Z,17.73
2023-05-01T07:38:04.669Z,14.43
2023-05-01T07:40:32.794Z,11.98
2023-05-01T07:42:59.315Z,16.83
2023-05-01T07:45:25.581Z,9.85
2023-05-01T07:47:52.324Z,13.95
2023-05-01T07:50:18.675Z,29.17
2023-05-01T07:52:45.376Z,18.95
2023-05-01T07:55:11.713Z,13.18
2023-05-01T07:57:38.562Z,16.67
2023-05-01T08:00:05.243Z,8.40
2023-05-01T08:02:31.763Z,13.32
2023-05-01T08:04:58.392Z,19.00
2023-05-01T08:07:24.654Z,18.60
2023-05-01T08:09:50.990Z,14.43
2023-05-01T08:12:17.300Z,15.25
2023-05-01T08:14:43.618Z,11.98
2023-05-01T08:17:09.856Z,17.27
2023-05-01T08:19:36.284Z,17.15
2023-05-01T08:22:02.573Z,14.52
2023-05-01T08:24:29.653Z,17.88
2023-05-01T08:26:56.272Z,17.35
2023-05-01T08:29:22.621Z,12.80
2023-05-01T08:31:48.931Z,14.45
2023-05-01T08:34:15.386Z,15.32
2023-05-01T08:36:41.641Z,20.73
2023-05-01T08:39:08.019Z,12.98
2023-05-01T08:41:34.693Z,14.90
2023-05-01T08:44:03.934Z,16.85
2023-05-01T08:46:50.797Z,10.95
2023-05-01T08:49:17.349Z,17.02
2023-05-01T08:51:46.191Z,9.18
2023-05-01T08:54:13.705Z,14.63
2023-05-01T08:56:40.060Z,21.38
2023-05-01T08:59:09.470Z,24.40
2023-05-01T09:01:35.962Z,13.43
2023-05-01T09:04:02.854Z,13.73
2023-05-01T09:06:30.028Z,10.23
2023-05-01T09:08:56.824Z,12.20
2023-05-01T09:11:23.676Z,12.00
2023-05-01T09:13:50.910Z,16.88
2023-05-01T09:16:17.252Z,14.70
2023-05-01T09:18:43.718Z,17.20
2023-05-01T09:21:10.453Z,10.13
2023-05-01T09:23:37.594Z,22.33
2023-05-01T09:26:10.201Z,11.02
2023-05-01T09:28:43.773Z,14.40
2023-05-01T09:31:23.339Z,14.57
2023-05-01T09:33:56.258Z,15.82
2023-05-01T09:36:23.222Z,8.55
2023-05-01T09:38:49.525Z,17.60
2023-05-01T09:41:15.804Z,11.00
2023-05-01T09:43:43.791Z,10.93
2023-05-01T09:46:10.736Z,12.20
2023-05-01T09:48:38.148Z,9.95
2023-05-01T09:51:25.290Z,15.38
2023-05-01T09:53:52.318Z,9.40
2023-05-01T09:56:19.055Z,14.55
2023-05-01T09:58:45.465Z,10.98
2023-05-01T10:01:11.798Z,12.07
2023-05-01T10:03:38.440Z,13.95
2023-05-01T10:06:05.094Z,8.50
2023-05-01T10:08:44.353Z,12.75
2023-05-01T10:11:10.689Z,13.35
2023-05-01T10:13:36.985Z,12.57
2023-05-01T10:16:07.330Z,16.98
2023-05-01T10:18:36.686Z,15.23
2023-05-01T10:21:03.882Z,9.68
2023-05-01T10:23:30.136Z,8.07
2023-05-01T10:25:56.806Z,11.68
2023-05-01T10:28:25.056Z,13.32
2023-05-01T10:30:51.548Z,9.32
2023-05-01T10:33:18.352Z,9.32
2023-05-01T10:35:47.840Z,15.40
2023-05-01T10:38:19.884Z,11.77
2023-05-01T10:40:49.521Z,12.13
2023-05-01T10:43:27.967Z,15.20
2023-05-01T10:46:09.554Z,10.98
2023-05-01T10:48:38.977Z,10.90
2023-05-01T10:51:15.459Z,11.65
2023-05-01T10:53:42.146Z,9.52
2023-05-01T10:56:31.480Z,10.80
2023-05-01T10:59:04.472Z,6.60
2023-05-01T11:01:34.534Z,10.63
2023-05-01T11:04:04.004Z,11.50
2023-05-01T11:06:30.691Z,13.15
2023-05-01T11:08:57.418Z,19.35
2023-05-01T11:11:26.907Z,11.02
2023-05-01T11:14:06.309Z,11.73
2023-05-01T11:16:46.097Z,9.23
2023-05-01T11:19:34.129Z,11.30
2023-05-01T11:22:00.974Z,8.35
2023-05-01T11:24:33.132Z,11.85
2023-05-01T11:27:00.162Z,11.90
2023-05-01T11:29:30.464Z,9.15
2023-05-01T11:31:56.833Z,8.38
2023-05-01T11:34:23.565Z,10.05
2023-05-01T11:36:50.817Z,12.20
2023-05-01T11:39:17.866Z,8.50
2023-05-01T11:41:44.251Z,11.80
2023-05-01T11:44:17.409Z,16.58
2023-05-01T11:46:44.006Z,13.05
2023-05-01T11:49:11.652Z,5.95
2023-05-01T11:51:37.987Z,9.35
2023-05-01T11:54:09.210Z,6.93
2023-05-01T11:56:36.696Z,9.82
2023-05-01T11:59:29.456Z,5.45
2023-05-01T12:01:55.927Z,8.40
2023-05-01T12:04:31.959Z,3.45
2023-05-01T12:06:58.901Z,7.55
2023-05-01T12:09:26.966Z,11.60
2023-05-01T12:11:53.508Z,4.20
2023-05-01T12:16:48.071Z,17.60
2023-05-01T12:19:15.170Z,9.48
2023-05-01T12:21:41.723Z,17.52
2023-05-01T12:24:11.866Z,6.70
2023-05-01T12:26:38.287Z,23.88
2023-05-01T12:29:05.476Z,10.77
2023-05-01T12:31:32.044Z,15.82
2023-05-01T12:33:58.390Z,9.40
2023-05-01T12:36:27.114Z,12.93
2023-05-01T12:38:56.253Z,18.65
2023-05-01T12:41:32.287Z,15.65
2023-05-01T12:43:58.610Z,10.15
2023-05-01T12:46:24.992Z,15.07
2023-05-01T12:48:52.407Z,21.80
2023-05-01T12:51:20.892Z,18.38
2023-05-01T12:53:47.464Z,14.68
2023-05-01T12:56:23.925Z,14.73
2023-05-01T12:58:51.783Z,12.43
2023-05-01T13:01:26.241Z,13.20
2023-05-01T13:03:53.307Z,23.27
2023-05-01T13:06:19.735Z,16.13
2023-05-01T13:08:46.233Z,8.73
2023-05-01T13:11:16.464Z,11.07
2023-05-01T13:13:43.549Z,12.93
2023-05-01T13:16:14.148Z,9.90
2023-05-01T13:18:43.989Z,12.90
2023-05-01T13:21:11.565Z,12.68
2023-05-01T13:23:38.028Z,13.23
2023-05-01T13:26:06.868Z,11.40
2023-05-01T13:28:36.579Z,14.63
2023-05-01T13:31:03.525Z,13.57
2023-05-01T13:33:31.342Z,13.02
2023-05-01T13:35:57.632Z,14.40
2023-05-01T13:38:24.978Z,10.32
2023-05-01T13:40:51.346Z,8.65
2023-05-01T13:43:17.958Z,11.82
2023-05-01T13:45:44.236Z,9.65
2023-05-01T13:48:10.803Z,14.55
2023-05-01T13:50:40.350Z,10.30
2023-05-01T13:53:06.702Z,14.60
2023-05-01T13:55:33.228Z,10.18
2023-05-01T13:58:00.696Z,14.57
2023-05-01T14:00:27.080Z,14.43
2023-05-01T14:02:54.083Z,9.15
2023-05-01T14:05:24.652Z,9.07
2023-05-01T14:10:17.508Z,16.30
2023-05-01T14:12:43.945Z,11.45
2023-05-01T14:15:12.133Z,16.83
2023-05-01T14:17:38.923Z,15.77
2023-05-01T14:20:05.665Z,13.75
2023-05-01T14:22:40.302Z,14.18
2023-05-01T14:25:21.883Z,9.10
2023-05-01T14:27:48.884Z,9.07
2023-05-01T14:30:21.961Z,5.93
2023-05-01T14:32:48.241Z,7.50
2023-05-01T14:35:15.094Z,6.63
2023-05-01T14:37:41.343Z,7.03
2023-05-01T14:40:17.649Z,9.55
2023-05-01T14:42:44.516Z,8.73
2023-05-01T14:45:14.815Z,7.78
2023-05-01T14:47:41.698Z,3.60
2023-05-01T14:50:08.393Z,10.25
2023-05-01T14:52:36.698Z,8.48
2023-05-01T14:55:03.941Z,6.30
2023-05-01T14:57:30.361Z,8.38
2023-05-01T14:59:56.650Z,11.75
2023-05-01T15:02:23.600Z,8.75
2023-05-01T15:04:50.041Z,8.20
2023-05-01T15:07:17.119Z,8.07
2023-05-01T15:09:43.486Z,9.07
2023-05-01T15:12:09.904Z,11.85
2023-05-01T15:14:36.195Z,4.13
2023-05-01T15:17:02.479Z,7.13
2023-05-01T15:19:28.712Z,14.43
2023-05-01T15:21:54.996Z,4.97
2023-05-01T15:24:23.054Z,4.88
2023-05-01T15:26:49.497Z,6.65
2023-05-01T15:29:15.858Z,8.50
2023-05-01T15:31:42.364Z,9.57
2023-05-01T15:34:08.643Z,6.95
2023-05-01T15:36:35.049Z,7.78
2023-05-01T15:39:01.456Z,9.00
2023-05-01T15:41:27.771Z,5.32
2023-05-01T15:43:54.083Z,6.30
2023-05-01T15:46:22.835Z,12.68
2023-05-01T15:48:49.620Z,14.00
2023-05-01T15:51:15.902Z,7.32
2023-05-01T15:53:42.245Z,11.43
2023-05-01T15:56:09.677Z,8.68
2023-05-01T15:58:36.009Z,7.32
2023-05-01T16:01:02.360Z,9.73
2023-05-01T16:03:29.553Z,8.25
2023-05-01T16:05:57.877Z,8.75
2023-05-01T16:08:24.361Z,9.45
2023-05-01T16:10:50.675Z,9.27
2023-05-01T16:13:16.906Z,7.03
2023-05-01T16:15:43.216Z,9.00
2023-05-01T16:18:19.816Z,18.77
2023-05-01T16:20:46.287Z,7.32
2023-05-01T16:23:14.300Z,8.80
2023-05-01T16:25:43.661Z,9.68
2023-05-01T16:28:10.186Z,13.23
2023-05-01T16:30:40.532Z,4.78
2023-05-01T16:35:33.049Z,5.97
2023-05-01T16:37:59.727Z,8.38
2023-05-01T16:40:26.100Z,9.50
2023-05-01T16:42:53.523Z,8.02
2023-05-01T16:45:20.053Z,7.03
2023-05-01T16:47:46.539Z,8.93
2023-05-01T16:50:13.187Z,28.10
2023-05-01T16:52:39.588Z,7.25
2023-05-01T16:55:06.518Z,9.60
2023-05-01T16:57:32.836Z,19.85
2023-05-01T16:59:59.524Z,17.85
2023-05-01T17:02:26.154Z,13.05
2023-05-01T17:04:52.449Z,11.85
2023-05-01T17:07:18.746Z,13.05
2023-05-01T17:09:45.058Z,13.32
2023-05-01T17:12:11.433Z,10.20
2023-05-01T17:14:37.784Z,14.15
2023-05-01T17:17:07.247Z,15.30
2023-05-01T17:19:38.647Z,77.88
2023-05-01T17:22:05.448Z,31.93
2023-05-01T17:24:31.815Z,17.38
2023-05-01T17:26:58.143Z,13.02
2023-05-01T17:29:24.478Z,12.85
2023-05-01T17:31:50.889Z,13.20
2023-05-01T17:34:17.166Z,12.75
2023-05-01T17:36:43.408Z,10.63
2023-05-01T17:39:09.694Z,13.48
2023-05-01T17:41:36.117Z,12.07
2023-05-01T17:44:02.433Z,9.57
2023-05-01T17:46:28.807Z,11.77
2023-05-01T17:48:55.250Z,14.68
2023-05-01T17:51:21.699Z,10.25
2023-05-01T17:54:21.843Z,10.82
2023-05-01T17:56:48.216Z,10.73
2023-05-01T17:59:14.607Z,11.43
2023-05-01T18:01:41.196Z,11.57
2023-05-01T18:04:09.069Z,12.43
2023-05-01T18:06:35.613Z,12.48
2023-05-01T18:09:01.858Z,11.20
2023-05-01T18:11:28.083Z,13.43
2023-05-01T18:13:54.343Z,14.30
2023-05-01T18:16:20.796Z,15.15
2023-05-01T18:18:48.213Z,16.63
2023-05-01T18:21:14.700Z,18.60
2023-05-01T18:23:41.052Z,15.55
2023-05-01T18:26:08.132Z,21.73
2023-05-01T18:28:34.611Z,17.83
2023-05-01T18:31:01.061Z,18.17
2023-05-01T18:33:27.404Z,20.40
2023-05-01T18:35:53.740Z,16.00
2023-05-01T18:38:19.990Z,15.98
2023-05-01T18:40:47.599Z,22.55
2023-05-01T18:43:14.180Z,21.00
2023-05-01T18:45:40.761Z,19.60
2023-05-01T18:48:08.178Z,20.65
2023-05-01T18:50:34.506Z,19.50
2023-05-01T18:53:00.795Z,19.27
2023-05-01T18:55:27.124Z,27.63
2023-05-01T18:57:53.367Z,22.77
2023-05-01T19:00:21.261Z,19.92
2023-05-01T19:02:51.524Z,22.75
2023-05-01T19:05:18.778Z,22.02
2023-05-01T19:07:45.258Z,21.95
2023-05-01T19:10:11.537Z,23.27
2023-05-01T19:12:39.049Z,24.63
2023-05-01T19:15:05.653Z,21.88
2023-05-01T19:17:31.969Z,23.20
2023-05-01T19:19:58.470Z,21.50
2023-05-01T19:22:24.859Z,26.10
2023-05-01T19:24:51.396Z,28.60
2023-05-01T19:27:20.426Z,24.35
2023-05-01T19:29:46.678Z,26.25
2023-05-01T19:32:13.195Z,23.23
2023-05-01T19:34:39.588Z,26.27
2023-05-01T19:37:05.991Z,27.95
2023-05-01T19:39:32.307Z,25.73
2023-05-01T19:41:58.671Z,28.88
2023-05-01T19:44:25.088Z,26.45
2023-05-01T19:46:51.435Z,30.67
2023-05-01T19:49:17.768Z,23.85
2023-05-01T19:51:44.851Z,25.60
2023-05-01T19:54:11.149Z,28.42
2023-05-01T19:56:38.526Z,28.25
2023-05-01T19:59:04.966Z,24.90
2023-05-01T20:01:31.398Z,24.08
2023-05-01T20:03:57.732Z,30.13
2023-05-01T20:06:24.000Z,26.83
2023-05-01T20:08:50.517Z,34.08
2023-05-01T20:11:16.848Z,32.85
2023-05-01T20:13:43.125Z,31.58
2023-05-01T20:16:09.862Z,31.40
2023-05-01T20:18:36.463Z,33.92
2023-05-01T20:21:02.745Z,30.98
2023-05-01T20:23:29.116Z,35.72
2023-05-01T20:25:55.386Z,40.15
2023-05-01T20:28:21.720Z,44.80
2023-05-01T20:30:48.711Z,39.58
2023-05-01T20:33:16.759Z,38.15
2023-05-01T20:35:43.393Z,37.17
2023-05-01T20:38:09.727Z,40.58
2023-05-01T20:40:36.873Z,39.47
2023-05-01T20:43:03.709Z,39.28
2023-05-01T20:45:30.793Z,34.97
2023-05-01T20:47:57.468Z,40.30
2023-05-01T20:50:24.507Z,40.80
2023-05-01T20:52:51.205Z,39.70
2023-05-01T20:55:17.645Z,36.88
2023-05-01T20:57:43.962Z,35.65
2023-05-01T21:00:11.164Z,36.83
2023-05-01T21:02:38.354Z,35.88
2023-05-01T21:05:05.585Z,39.05
2023-05-01T21:07:31.990Z,42.67
2023-05-01T21:09:58.444Z,41.17
2023-05-01T21:12:24.888Z,41.28
2023-05-01T21:14:51.151Z,39.70
2023-05-01T21:17:18.042Z,40.95
2023-05-01T21:19:45.709Z,40.60
2023-05-01T21:22:16.088Z,43.67
2023-05-01T21:24:43.949Z,38.30
2023-05-01T21:27:10.425Z,40.28
2023-05-01T21:29:36.712Z,40.40
2023-05-01T21:32:04.080Z,42.95
2023-05-01T21:34:30.398Z,41.63
2023-05-01T21:36:56.748Z,44.63
2023-05-01T21:39:24.670Z,54.13
2023-05-01T21:41:51.368Z,50.92
2023-05-01T21:44:17.706Z,48.80
2023-05-01T21:46:44.284Z,51.38
2023-05-01T21:49:16.816Z,49.92
2023-05-01T21:51:43.130Z,48.75
2023-05-01T21:54:09.457Z,54.28
2023-05-01T21:56:35.718Z,52.00
2023-05-01T21:59:04.683Z,45.78
2023-05-01T22:01:31.589Z,39.30
2023-05-01T22:03:58.245Z,30.98
2023-05-01T22:06:25.400Z,29.02
2023-05-01T22:08:52.046Z,26.70
2023-05-01T22:11:18.602Z,27.92
2023-05-01T22:13:44.853Z,26.70
2023-05-01T22:16:13.589Z,24.67
2023-05-01T22:18:39.952Z,24.38
2023-05-01T22:21:06.308Z,22.92
2023-05-01T22:23:32.672Z,27.20
2023-05-01T22:26:01.785Z,24.58
2023-05-01T22:28:28.439Z,25.50
2023-05-01T22:30:54.735Z,24.13
2023-05-01T22:33:21.047Z,26.38
2023-05-01T22:35:47.357Z,26.25
2023-05-01T22:38:13.681Z,24.95
2023-05-01T22:40:39.978Z,21.98
2023-05-01T22:43:06.233Z,28.20
2023-05-01T22:45:32.619Z,22.58
2023-05-01T22:47:58.907Z,24.63
2023-05-01T22:50:25.282Z,29.23
2023-05-01T22:52:51.650Z,26.85
2023-05-01T22:55:17.956Z,25.88
2023-05-01T22:57:44.610Z,26.15
2023-05-01T23:00:12.723Z,27.98
2023-05-01T23:02:39.072Z,27.17
2023-05-01T23:05:06.769Z,27.48
2023-05-01T23:07:33.063Z,28.13
2023-05-01T23:10:00.593Z,22.65
2023-05-01T23:12:27.781Z,26.00
2023-05-01T23:14:55.044Z,22.70
2023-05-01T23:17:22.039Z,29.73
2023-05-01T23:19:48.392Z,26.80
2023-05-01T23:22:14.711Z,29.20
2023-05-01T23:24:42.982Z,24.15
2023-05-01T23:27:09.249Z,31.08
2023-05-01T23:29:35.652Z,28.55
2023-05-01T23:32:02.366Z,31.05
2023-05-01T23:34:28.860Z,29.42
2023-05-01T23:36:55.108Z,30.25
2023-05-01T23:39:21.340Z,31.38
2023-05-01T23:41:47.686Z,36.60
2023-05-01T23:44:13.916Z,30.25
2023-05-01T23:46:40.257Z,37.72
2023-05-01T23:49:06.660Z,37.30
2023-05-01T23:51:33.085Z,42.78
2023-05-01T23:53:59.834Z,42.63
2023-05-01T23:56:26.329Z,44.90
2023-05-01T23:58:52.630Z,36.00
